Time;durP1;ratioP1;P1;durP2;ratioP2;P2;SDS_P1;SDS_P2;PMS_P1;PMS_P2;Temp;Humidity;BMP_temperature;BMP_pressure;BME280_temperature;BME280_humidity;BME280_pressure;Samples;Min_cycle;Max_cycle;Signal;HPM_P1;HPM_P2
2021/09/04 00:01:58;;;;;;;25.02;19.45;;;;;;;18.99;53.45;95507.25;5008434;28;20038;-68
2021/09/04 00:04:23;;;;;;;18.40;16.52;;;;;;;18.94;53.48;95511.00;5010155;28;20364;-67
2021/09/04 00:06:48;;;;;;;19.75;17.70;;;;;;;18.96;53.24;95510.63;5009879;28;20451;-69
2021/09/04 00:09:14;;;;;;;19.58;17.30;;;;;;;19.00;53.15;95522.28;5011611;28;20392;-68
2021/09/04 00:11:39;;;;;;;23.75;19.13;;;;;;;18.98;53.15;95513.75;5011534;28;20749;-67
2021/09/04 00:14:04;;;;;;;22.42;17.65;;;;;;;18.89;53.22;95505.09;5011943;28;20046;-68
2021/09/04 00:16:30;;;;;;;22.75;17.52;;;;;;;18.85;53.17;95499.59;5013828;28;20030;-68
2021/09/04 00:18:55;;;;;;;17.13;15.32;;;;;;;18.87;53.12;95507.31;4993803;28;20056;-68
2021/09/04 00:21:20;;;;;;;18.73;16.85;;;;;;;18.92;53.30;95513.22;4994308;28;20141;-68
2021/09/04 00:23:46;;;;;;;20.95;15.88;;;;;;;18.84;53.25;95506.13;5011984;28;20030;-68
2021/09/04 00:26:11;;;;;;;18.27;16.40;;;;;;;18.84;53.16;95510.72;4994099;28;20066;-68
2021/09/04 00:28:36;;;;;;;22.27;17.48;;;;;;;18.79;53.22;95505.59;5011059;28;20068;-68
2021/09/04 00:31:02;;;;;;;17.95;15.98;;;;;;;18.80;53.03;95499.06;4995979;28;20037;-68
2021/09/04 00:33:27;;;;;;;21.55;16.80;;;;;;;18.78;53.07;95496.72;5011576;28;20133;-67
2021/09/04 00:35:53;;;;;;;16.27;14.63;;;;;;;18.81;53.15;95498.72;5011589;28;20030;-68
2021/09/04 00:38:18;;;;;;;20.05;16.33;;;;;;;18.69;53.37;95486.13;4993822;28;20065;-68
2021/09/04 00:40:44;;;;;;;21.02;17.83;;;;;;;18.74;52.99;95495.84;5011157;28;20460;-69
2021/09/04 00:43:10;;;;;;;21.05;18.08;;;;;;;18.67;53.13;95493.72;5012813;28;20151;-68
2021/09/04 00:45:35;;;;;;;16.30;14.32;;;;;;;18.63;53.13;95492.88;4993636;28;20500;-69
2021/09/04 00:48:03;;;;;;;21.25;17.15;;;;;;;18.60;52.99;95487.38;4993842;28;20552;-68
2021/09/04 00:50:31;;;;;;;23.38;17.17;;;;;;;18.60;53.20;95490.06;5010979;28;20542;-69
2021/09/04 00:52:56;;;;;;;20.52;17.02;;;;;;;18.60;53.05;95492.78;4993712;28;20399;-69
2021/09/04 00:55:23;;;;;;;15.50;14.00;;;;;;;18.63;53.03;95492.06;5013263;28;20022;-68
2021/09/04 00:57:48;;;;;;;17.48;15.60;;;;;;;18.59;53.04;95501.97;5010771;28;20041;-68
2021/09/04 01:00:14;;;;;;;19.88;15.00;;;;;;;18.65;53.29;95506.75;4993148;28;20045;-68
2021/09/04 01:02:40;;;;;;;17.08;14.57;;;;;;;18.60;53.20;95498.94;5011090;28;20410;-68
2021/09/04 01:05:06;;;;;;;23.70;17.60;;;;;;;18.55;53.01;95496.50;5010858;28;20077;-68
2021/09/04 01:07:32;;;;;;;25.40;19.42;;;;;;;18.61;53.19;95507.78;5012834;28;20113;-71
2021/09/04 01:09:58;;;;;;;20.95;17.50;;;;;;;18.50;53.05;95496.75;5010439;28;20121;-68
2021/09/04 01:12:24;;;;;;;25.20;17.98;;;;;;;18.54;52.89;95496.84;5010221;28;20479;-68
2021/09/04 01:14:49;;;;;;;19.00;16.38;;;;;;;18.54;53.13;95504.94;4992831;28;20092;-68
2021/09/04 01:17:15;;;;;;;23.63;18.20;;;;;;;18.56;52.98;95495.38;5010402;28;20525;-68
2021/09/04 01:19:40;;;;;;;20.52;17.42;;;;;;;18.52;52.98;95499.09;4992595;28;20018;-68
2021/09/04 01:22:06;;;;;;;16.08;14.32;;;;;;;18.45;53.07;95480.84;5012683;28;20026;-69
2021/09/04 01:24:31;;;;;;;18.95;16.98;;;;;;;18.45;53.08;95478.94;5010623;28;20053;-68
2021/09/04 01:26:58;;;;;;;23.52;17.92;;;;;;;18.53;52.83;95487.19;5010085;28;20124;-68
2021/09/04 01:29:23;;;;;;;23.75;18.98;;;;;;;18.45;52.68;95486.22;5009804;28;20560;-68
2021/09/04 01:31:49;;;;;;;19.77;17.08;;;;;;;18.43;52.75;95483.88;4992904;28;20159;-68
2021/09/04 01:34:14;;;;;;;25.15;18.45;;;;;;;18.47;52.70;95481.28;4994598;28;20125;-70
2021/09/04 01:36:40;;;;;;;20.48;16.55;;;;;;;18.31;52.57;95467.00;5010390;28;20038;-68
2021/09/04 01:39:07;;;;;;;22.25;17.80;;;;;;;18.41;52.61;95486.13;5010029;28;20057;-68
2021/09/04 01:41:33;;;;;;;17.80;15.73;;;;;;;18.29;52.99;95467.34;5010670;28;20513;-67
2021/09/04 01:43:59;;;;;;;28.42;19.75;;;;;;;18.33;52.97;95478.22;5009594;28;20054;-68
2021/09/04 01:46:26;;;;;;;18.98;16.92;;;;;;;18.30;53.09;95481.59;5012137;28;20117;-68
2021/09/04 01:48:52;;;;;;;20.45;15.55;;;;;;;18.22;52.76;95464.47;5009575;28;20034;-68
2021/09/04 01:51:17;;;;;;;23.90;18.27;;;;;;;18.22;53.05;95472.56;5010031;28;20104;-68
2021/09/04 01:53:43;;;;;;;20.23;17.42;;;;;;;18.07;52.90;95460.63;4992390;28;20050;-68
2021/09/04 01:56:10;;;;;;;24.10;18.17;;;;;;;18.12;52.92;95468.47;5010151;28;20406;-68
2021/09/04 01:58:35;;;;;;;21.15;16.33;;;;;;;18.14;53.27;95476.97;5009040;28;20018;-70
2021/09/04 02:01:02;;;;;;;19.30;16.25;;;;;;;18.03;53.04;95469.72;5011536;28;20026;-68
2021/09/04 02:03:27;;;;;;;19.55;17.08;;;;;;;18.02;52.95;95470.84;5009782;28;20038;-68
2021/09/04 02:05:52;;;;;;;24.48;17.88;;;;;;;17.98;52.98;95468.06;5009955;28;20510;-68
2021/09/04 02:08:18;;;;;;;20.70;17.40;;;;;;;17.94;53.07;95464.47;5009829;28;20552;-68
2021/09/04 02:10:43;;;;;;;18.75;16.40;;;;;;;17.93;53.16;95471.78;5009376;28;20033;-68
2021/09/04 02:13:08;;;;;;;18.13;15.07;;;;;;;17.96;53.13;95481.06;5011156;28;20571;-68
2021/09/04 02:15:35;;;;;;;18.92;15.88;;;;;;;17.89;53.16;95465.50;5009621;28;20042;-68
2021/09/04 02:18:00;;;;;;;20.50;16.00;;;;;;;17.90;53.33;95471.66;5009888;28;20129;-68
2021/09/04 02:20:26;;;;;;;17.55;15.55;;;;;;;17.83;53.05;95452.66;5009226;28;20121;-68
2021/09/04 02:22:51;;;;;;;14.45;12.98;;;;;;;17.86;53.10;95454.63;5009399;28;20022;-68
2021/09/04 02:25:16;;;;;;;16.23;14.60;;;;;;;17.96;53.50;95461.44;4993884;28;20029;-68
2021/09/04 02:27:42;;;;;;;17.02;15.35;;;;;;;17.95;53.39;95457.97;5009075;28;20056;-67
2021/09/04 02:30:08;;;;;;;16.00;14.32;;;;;;;17.90;53.39;95447.44;5008449;28;20022;-68
2021/09/04 02:32:33;;;;;;;24.92;18.38;;;;;;;17.97;53.31;95447.66;4991867;28;20507;-70
2021/09/04 02:34:59;;;;;;;23.08;17.02;;;;;;;17.99;53.12;95445.41;4991767;28;20069;-68
2021/09/04 02:37:26;;;;;;;21.05;16.58;;;;;;;17.88;53.35;95438.94;5011002;28;20140;-71
2021/09/04 02:39:51;;;;;;;17.00;14.15;;;;;;;17.88;53.08;95447.81;5008146;28;20728;-68
2021/09/04 02:42:16;;;;;;;18.63;15.52;;;;;;;17.86;53.10;95450.06;5008901;28;20555;-68
2021/09/04 02:44:42;;;;;;;18.73;14.93;;;;;;;17.83;53.24;95444.56;4991845;28;20030;-68
2021/09/04 02:47:07;;;;;;;19.02;15.80;;;;;;;17.65;53.43;95417.91;5009237;28;20471;-68
2021/09/04 02:49:33;;;;;;;20.48;16.10;;;;;;;17.81;53.38;95449.50;4993044;28;20032;-68
2021/09/04 02:51:58;;;;;;;16.88;14.88;;;;;;;17.84;53.54;95451.50;4991587;28;20044;-68
2021/09/04 02:54:24;;;;;;;27.00;18.08;;;;;;;17.75;53.22;95440.88;5009196;28;20045;-68
2021/09/04 02:56:49;;;;;;;23.17;17.13;;;;;;;17.75;53.60;95446.28;4991591;28;20026;-68
2021/09/04 02:59:14;;;;;;;17.02;14.93;;;;;;;17.52;53.42;95411.03;4990332;28;20049;-68
2021/09/04 03:01:40;;;;;;;21.25;17.40;;;;;;;17.63;53.37;95430.16;5009111;28;20026;-69
2021/09/04 03:04:05;;;;;;;19.98;15.55;;;;;;;17.61;53.27;95427.81;5010884;28;20026;-69
2021/09/04 03:06:30;;;;;;;21.15;16.85;;;;;;;17.60;53.46;95428.91;5008949;28;20034;-68
2021/09/04 03:08:56;;;;;;;22.70;16.70;;;;;;;17.62;53.38;95440.13;5008215;28;20030;-68
2021/09/04 03:11:22;;;;;;;15.25;13.73;;;;;;;17.55;53.31;95428.38;5008938;28;20100;-68
2021/09/04 03:13:48;;;;;;;17.50;15.05;;;;;;;17.61;53.46;95435.88;5008312;28;20022;-68
2021/09/04 03:16:13;;;;;;;18.90;15.77;;;;;;;17.60;53.38;95431.59;4993024;28;20048;-68
2021/09/04 03:18:39;;;;;;;17.83;14.85;;;;;;;17.55;53.28;95437.22;5008190;28;20554;-68
2021/09/04 03:21:04;;;;;;;15.63;13.20;;;;;;;17.49;53.36;95429.75;5008762;28;20030;-68
2021/09/04 03:23:29;;;;;;;15.27;13.48;;;;;;;17.54;53.46;95427.59;5008768;28;20041;-68
2021/09/04 03:25:55;;;;;;;16.38;14.77;;;;;;;17.58;53.24;95436.56;4991072;28;20045;-67
2021/09/04 03:28:20;;;;;;;17.25;15.48;;;;;;;17.55;53.45;95439.13;5010036;28;20072;-68
2021/09/04 03:30:46;;;;;;;17.10;15.00;;;;;;;17.52;53.33;95439.81;5008205;28;20034;-68
2021/09/04 03:33:11;;;;;;;15.57;13.98;;;;;;;17.39;53.42;95431.00;5008759;28;20042;-68
2021/09/04 03:35:36;;;;;;;20.35;15.35;;;;;;;17.36;53.40;95420.94;4990750;28;20558;-68
2021/09/04 03:38:02;;;;;;;19.13;16.60;;;;;;;17.41;53.18;95429.53;5008507;28;20069;-69
2021/09/04 03:40:27;;;;;;;20.75;16.20;;;;;;;17.42;53.29;95430.31;5010128;28;20045;-68
2021/09/04 03:42:52;;;;;;;19.17;15.38;;;;;;;17.39;53.16;95425.63;4993704;28;20061;-69
2021/09/04 03:45:18;;;;;;;21.08;16.23;;;;;;;17.37;53.35;95425.19;5012306;28;20046;-68
2021/09/04 03:47:43;;;;;;;19.00;15.80;;;;;;;17.36;53.34;95434.38;4994671;28;20041;-69
2021/09/04 03:50:09;;;;;;;19.13;15.80;;;;;;;17.37;53.22;95441.31;5012016;28;20034;-69
2021/09/04 03:52:34;;;;;;;15.40;13.85;;;;;;;17.32;53.19;95438.88;5012352;28;20029;-67
2021/09/04 03:54:59;;;;;;;21.15;16.52;;;;;;;17.29;53.43;95428.78;5014242;28;20401;-68
2021/09/04 03:57:25;;;;;;;18.60;16.58;;;;;;;17.31;53.46;95446.16;5011906;28;20069;-68
2021/09/04 03:59:50;;;;;;;27.73;19.40;;;;;;;17.33;53.80;95443.13;5011557;28;20076;-69
2021/09/04 04:02:16;;;;;;;25.45;19.13;;;;;;;17.31;53.81;95446.16;5012342;28;20069;-69
2021/09/04 04:04:41;;;;;;;32.40;19.58;;;;;;;17.30;53.63;95444.59;5012973;28;20075;-75
2021/09/04 04:07:06;;;;;;;19.27;16.65;;;;;;;17.18;53.81;95441.13;5014622;28;20105;-74
2021/09/04 04:09:32;;;;;;;24.38;18.42;;;;;;;17.28;53.69;95452.19;4994174;28;20132;-73
2021/09/04 04:11:57;;;;;;;22.65;17.95;;;;;;;17.16;53.79;95428.03;5012628;28;20034;-64
2021/09/04 04:14:23;;;;;;;20.27;16.45;;;;;;;17.15;53.88;95439.91;5011732;28;20125;-72
2021/09/04 04:16:48;;;;;;;22.90;17.73;;;;;;;17.12;53.64;95438.66;4994383;28;20037;-71
2021/09/04 04:19:13;;;;;;;29.27;20.60;;;;;;;17.12;53.74;95437.88;5013585;28;20029;-71
2021/09/04 04:21:39;;;;;;;23.58;17.45;;;;;;;17.14;53.91;95443.69;4994551;28;20045;-71
2021/09/04 04:24:04;;;;;;;18.63;15.77;;;;;;;17.08;53.83;95437.75;5012025;28;20128;-74
2021/09/04 04:26:29;;;;;;;16.65;14.85;;;;;;;17.18;54.00;95444.59;5012231;28;20057;-74
2021/09/04 04:28:55;;;;;;;24.20;19.27;;;;;;;17.17;53.83;95431.50;5011024;28;20399;-74
2021/09/04 04:31:20;;;;;;;18.17;16.20;;;;;;;17.21;53.87;95445.84;4996195;28;20467;-74
2021/09/04 04:33:46;;;;;;;26.10;19.23;;;;;;;17.18;53.68;95441.91;4994340;28;20503;-74
2021/09/04 04:36:11;;;;;;;18.80;16.80;;;;;;;17.21;53.82;95437.75;5011824;28;20034;-73
2021/09/04 04:38:36;;;;;;;32.00;20.85;;;;;;;17.22;53.62;95448.16;4994005;28;20034;-75
2021/09/04 04:41:03;;;;;;;22.88;18.80;;;;;;;17.11;53.35;95431.72;5011766;28;20037;-74
2021/09/04 04:43:29;;;;;;;27.60;20.30;;;;;;;17.20;53.45;95447.75;5013353;28;20034;-75
2021/09/04 04:45:54;;;;;;;29.73;19.85;;;;;;;17.23;53.43;95449.72;5011789;28;20488;-71
2021/09/04 04:48:20;;;;;;;21.48;17.42;;;;;;;17.19;53.47;95440.00;5011710;28;20049;-71
2021/09/04 04:50:45;;;;;;;18.67;15.23;;;;;;;17.19;53.42;95430.03;4993696;28;20034;-71
2021/09/04 04:53:12;;;;;;;15.82;14.23;;;;;;;17.32;53.67;95444.25;4994541;28;20026;-78
2021/09/04 04:55:37;;;;;;;15.40;13.85;;;;;;;17.37;53.78;95441.31;5012814;28;20025;-76
2021/09/04 04:58:03;;;;;;;21.77;16.63;;;;;;;17.35;53.61;95428.22;5014371;28;20026;-77
2021/09/04 05:00:29;;;;;;;23.23;16.92;;;;;;;17.41;53.26;95426.06;5012100;28;20113;-79
2021/09/04 05:02:54;;;;;;;23.08;18.73;;;;;;;17.29;53.29;95408.03;4995421;28;20122;-82
2021/09/04 05:05:20;;;;;;;29.92;19.58;;;;;;;17.41;53.40;95431.44;5012760;28;20049;-71
2021/09/04 05:07:45;;;;;;;19.60;14.82;;;;;;;17.35;53.23;95408.59;5012876;28;20022;-80
2021/09/04 05:10:11;;;;;;;14.05;12.65;;;;;;;17.51;53.38;95425.59;4996316;28;20022;-73
2021/09/04 05:12:36;;;;;;;13.23;11.93;;;;;;;17.71;53.54;95445.38;5010106;28;20124;-84
2021/09/04 05:15:02;;;;;;;12.52;11.32;;;;;;;17.72;53.43;95427.31;5011994;28;20042;-72
2021/09/04 05:17:27;;;;;;;12.73;11.52;;;;;;;17.80;53.48;95435.25;5010467;28;20129;-76
2021/09/04 05:19:53;;;;;;;12.55;11.35;;;;;;;17.94;52.94;95448.34;4993575;28;20029;-82
2021/09/04 05:22:18;;;;;;;15.50;13.82;;;;;;;18.01;52.90;95448.50;4997103;28;20034;-82
2021/09/04 05:24:44;;;;;;;13.27;11.93;;;;;;;17.96;52.57;95421.84;5012506;28;20403;-70
2021/09/04 05:27:09;;;;;;;20.23;17.40;;;;;;;18.02;52.38;95423.19;4994187;28;20045;-76
2021/09/04 05:29:34;;;;;;;17.23;15.43;;;;;;;17.99;52.41;95417.69;4993814;28;20042;-78
2021/09/04 05:32:00;;;;;;;17.35;15.65;;;;;;;18.28;52.33;95457.72;5008646;28;20085;-78
2021/09/04 05:34:25;;;;;;;17.48;15.32;;;;;;;18.30;52.23;95451.97;5013561;28;20105;-81
2021/09/04 05:36:50;;;;;;;14.20;13.00;;;;;;;18.37;52.41;95458.31;5012386;28;20120;-79
2021/09/04 05:39:16;;;;;;;13.85;12.35;;;;;;;18.49;52.50;95465.56;4994089;28;20042;-78
2021/09/04 05:41:41;;;;;;;16.92;15.23;;;;;;;18.44;52.69;95444.25;5010859;28;20558;-72
2021/09/04 05:44:06;;;;;;;16.25;14.60;;;;;;;18.53;52.31;95431.41;5010564;28;20053;-75
2021/09/04 05:46:32;;;;;;;13.85;12.45;;;;;;;18.76;52.47;95441.59;5013341;28;20141;-76
2021/09/04 05:48:57;;;;;;;13.57;12.32;;;;;;;18.91;52.70;95459.69;5010944;28;20037;-77
2021/09/04 05:51:23;;;;;;;17.63;14.32;;;;;;;18.92;52.42;95432.38;5011716;28;20506;-75
2021/09/04 05:53:48;;;;;;;13.68;12.38;;;;;;;19.13;52.48;95447.47;5011632;28;20060;-76
2021/09/04 05:56:13;;;;;;;14.35;12.25;;;;;;;19.14;52.57;95435.53;5011439;28;20037;-76
2021/09/04 05:58:40;;;;;;;13.23;11.88;;;;;;;19.34;52.45;95449.84;5009753;28;20135;-74
2021/09/04 06:01:06;;;;;;;14.85;12.93;;;;;;;19.36;52.56;95434.91;4994940;28;20025;-76
2021/09/04 06:03:31;;;;;;;11.95;10.70;;;;;;;19.51;52.79;95449.47;4992526;28;20038;-75
2021/09/04 06:05:57;;;;;;;12.13;11.10;;;;;;;19.65;52.39;95436.28;5009973;28;20026;-76
2021/09/04 06:08:23;;;;;;;13.13;11.80;;;;;;;19.84;52.51;95440.91;5010591;28;20038;-76
2021/09/04 06:10:49;;;;;;;16.30;13.30;;;;;;;20.00;52.48;95435.44;5010318;28;20037;-76
2021/09/04 06:13:14;;;;;;;14.00;12.60;;;;;;;20.15;52.41;95436.50;5011983;28;20084;-76
2021/09/04 06:15:40;;;;;;;12.38;11.48;;;;;;;20.26;52.07;95427.44;5010264;28;20030;-75
2021/09/04 06:18:05;;;;;;;13.00;11.85;;;;;;;20.39;52.08;95436.16;4993330;28;20559;-74
2021/09/04 06:20:30;;;;;;;12.88;11.77;;;;;;;20.51;52.30;95436.00;5010418;28;20085;-75
2021/09/04 06:22:56;;;;;;;12.70;11.60;;;;;;;20.68;52.13;95447.50;5010752;28;20038;-77
2021/09/04 06:25:21;;;;;;;11.95;10.95;;;;;;;20.40;52.07;95418.81;5013023;28;20083;-77
2021/09/04 06:27:48;;;;;;;12.98;11.60;;;;;;;20.56;52.01;95418.72;5010471;28;20439;-77
2021/09/04 06:30:15;;;;;;;10.82;9.93;;;;;;;20.85;51.84;95451.63;5008957;28;20061;-76
2021/09/04 06:32:40;;;;;;;11.23;10.05;;;;;;;20.71;51.88;95427.84;4992231;28;20092;-75
2021/09/04 06:35:05;;;;;;;9.98;9.18;;;;;;;20.59;52.00;95436.16;4992397;28;20476;-74
2021/09/04 06:37:31;;;;;;;10.57;9.57;;;;;;;19.91;53.95;95442.97;5012037;28;20479;-75
2021/09/04 06:39:56;;;;;;;10.85;9.85;;;;;;;20.40;52.97;95453.16;4991991;28;20480;-74
2021/09/04 06:42:22;;;;;;;10.80;9.80;;;;;;;20.22;53.80;95460.94;5009719;28;20456;-75
2021/09/04 06:44:47;;;;;;;9.95;9.05;;;;;;;20.36;53.29;95442.28;5009293;28;20030;-76
2021/09/04 06:47:12;;;;;;;11.80;10.57;;;;;;;20.53;53.50;95449.19;5009643;28;20038;-76
2021/09/04 06:49:38;;;;;;;10.80;10.00;;;;;;;20.49;53.57;95449.13;5009014;28;20026;-76
2021/09/04 06:52:04;;;;;;;10.00;9.13;;;;;;;20.09;55.05;95457.59;4993841;28;20032;-75
2021/09/04 06:54:29;;;;;;;10.65;9.65;;;;;;;20.14;54.13;95437.63;5008299;28;20687;-70
2021/09/04 06:56:54;;;;;;;10.02;8.95;;;;;;;19.85;54.67;95410.09;5008863;28;20042;-72
2021/09/04 06:59:21;;;;;;;9.68;8.90;;;;;;;20.00;55.54;95465.13;5008112;28;20045;-71
2021/09/04 07:01:47;;;;;;;10.32;9.43;;;;;;;19.87;56.18;95469.91;5009149;28;20123;-72
2021/09/04 07:04:12;;;;;;;9.77;9.00;;;;;;;20.04;56.37;95468.69;5011378;28;20487;-71
2021/09/04 07:06:38;;;;;;;9.80;8.90;;;;;;;20.35;55.17;95475.06;5009612;28;20066;-74
2021/09/04 07:09:04;;;;;;;9.95;9.15;;;;;;;20.51;55.17;95473.84;5009954;28;20042;-72
2021/09/04 07:11:30;;;;;;;11.20;10.20;;;;;;;20.48;55.27;95479.22;5009006;28;20056;-73
2021/09/04 07:13:55;;;;;;;11.68;10.65;;;;;;;20.11;55.81;95428.31;5008103;28;20527;-74
2021/09/04 07:16:21;;;;;;;10.20;9.27;;;;;;;20.96;54.20;95456.06;5010244;28;20030;-73
2021/09/04 07:18:47;;;;;;;10.40;9.38;;;;;;;21.73;52.57;95471.09;4990584;28;20049;-74
2021/09/04 07:21:13;;;;;;;10.50;9.60;;;;;;;22.02;51.56;95456.00;5008274;28;20050;-73
2021/09/04 07:23:38;;;;;;;13.85;9.38;;;;;;;21.65;52.98;95466.75;5008612;28;20041;-73
2021/09/04 07:26:04;;;;;;;9.45;8.55;;;;;;;21.24;53.66;95466.56;5008603;28;20094;-73
2021/09/04 07:28:30;;;;;;;9.68;8.88;;;;;;;21.65;52.90;95452.41;5010156;28;20022;-73
2021/09/04 07:30:55;;;;;;;10.70;9.70;;;;;;;22.19;51.63;95467.44;5008440;28;20038;-73
2021/09/04 07:33:20;;;;;;;10.95;10.05;;;;;;;22.49;50.58;95453.81;4990772;28;20377;-73
2021/09/04 07:35:46;;;;;;;10.40;9.50;;;;;;;22.70;49.77;95451.28;5008745;28;20069;-73
2021/09/04 07:38:11;;;;;;;10.85;9.90;;;;;;;22.78;49.98;95461.06;4991015;28;20542;-73
2021/09/04 07:40:37;;;;;;;10.05;9.07;;;;;;;22.89;49.76;95482.09;5008251;28;20037;-74
2021/09/04 07:43:03;;;;;;;10.48;9.57;;;;;;;23.22;49.43;95481.94;5010582;28;20515;-73
2021/09/04 07:45:29;;;;;;;9.63;8.73;;;;;;;23.23;49.23;95461.03;5008049;28;20395;-73
2021/09/04 07:47:54;;;;;;;10.10;9.32;;;;;;;23.40;48.82;95467.75;5007940;28;20137;-73
2021/09/04 07:50:19;;;;;;;10.63;9.70;;;;;;;23.50;48.86;95464.31;5007991;28;20069;-73
2021/09/04 07:52:45;;;;;;;10.07;9.27;;;;;;;23.76;48.28;95499.41;5008504;28;20030;-73
2021/09/04 07:55:10;;;;;;;15.13;9.73;;;;;;;23.67;47.84;95477.22;5010344;28;20022;-72
2021/09/04 07:57:36;;;;;;;10.57;9.52;;;;;;;23.64;47.77;95474.50;4990807;28;20089;-72
2021/09/04 08:00:01;;;;;;;9.75;8.95;;;;;;;23.75;47.93;95467.97;5007496;28;20042;-73
2021/09/04 08:02:27;;;;;;;10.23;9.43;;;;;;;23.95;47.45;95492.09;5007865;28;20092;-73
2021/09/04 08:04:52;;;;;;;9.20;8.50;;;;;;;23.90;47.94;95490.53;5008614;28;20033;-73
2021/09/04 08:07:17;;;;;;;9.52;8.63;;;;;;;24.00;47.57;95462.63;5010304;28;20018;-73
2021/09/04 08:09:43;;;;;;;10.10;9.30;;;;;;;24.26;47.20;95475.16;5007943;28;20080;-75
2021/09/04 08:12:08;;;;;;;10.57;8.40;;;;;;;23.99;46.62;95488.25;5008274;28;20483;-73
2021/09/04 08:14:33;;;;;;;9.20;8.45;;;;;;;23.29;48.41;95476.59;4990229;28;20038;-73
2021/09/04 08:16:59;;;;;;;8.82;8.13;;;;;;;23.86;47.50;95470.75;4990257;28;20568;-73
2021/09/04 08:19:24;;;;;;;9.13;8.43;;;;;;;24.29;47.06;95503.50;5009744;28;20077;-73
2021/09/04 08:21:50;;;;;;;9.50;8.48;;;;;;;24.44;47.04;95493.50;4990417;28;20038;-73
2021/09/04 08:24:15;;;;;;;9.88;8.98;;;;;;;24.53;46.25;95500.13;5008323;28;20052;-73
2021/09/04 08:26:42;;;;;;;8.50;7.72;;;;;;;24.62;45.97;95491.59;5008513;28;20101;-73
2021/09/04 08:29:08;;;;;;;9.90;9.00;;;;;;;24.51;45.33;95475.22;5010645;28;20046;-72
2021/09/04 08:31:33;;;;;;;8.90;8.10;;;;;;;24.49;44.28;95471.34;4995988;28;20044;-72
2021/09/04 08:33:59;;;;;;;9.48;8.57;;;;;;;24.48;44.59;95451.56;5011188;28;20120;-72
2021/09/04 08:36:24;;;;;;;8.90;8.13;;;;;;;24.74;44.77;95463.25;4993799;28;20124;-73
2021/09/04 08:38:49;;;;;;;9.02;8.23;;;;;;;24.79;44.39;95471.03;5011230;28;20088;-70
2021/09/04 08:41:15;;;;;;;9.52;8.68;;;;;;;25.15;44.36;95504.50;5010495;28;20135;-70
2021/09/04 08:43:41;;;;;;;9.50;8.70;;;;;;;24.50;45.00;95476.41;4993369;28;20044;-75
2021/09/04 08:46:06;;;;;;;8.57;7.85;;;;;;;25.10;44.77;95504.88;5013401;28;20017;-69
2021/09/04 08:48:32;;;;;;;9.60;8.80;;;;;;;24.84;44.10;95479.56;5011138;28;20057;-70
2021/09/04 08:50:57;;;;;;;9.73;8.82;;;;;;;25.06;43.71;95495.91;5010981;28;20034;-71
2021/09/04 08:53:23;;;;;;;9.27;8.07;;;;;;;25.12;43.78;95505.25;4993641;28;20056;-69
2021/09/04 08:55:49;;;;;;;9.27;8.57;;;;;;;25.29;42.95;95481.94;5011141;28;20096;-70
2021/09/04 08:58:15;;;;;;;9.32;8.02;;;;;;;24.92;43.57;95502.09;5013135;28;20030;-69
2021/09/04 09:00:42;;;;;;;10.82;8.25;;;;;;;25.30;43.79;95499.84;5009949;28;20061;-69
2021/09/04 09:03:24;;;;;;;9.70;8.88;;;;;;;24.92;43.59;95490.44;5010867;28;20069;-67
2021/09/04 09:05:49;;;;;;;9.00;8.20;;;;;;;25.37;42.06;95478.81;4993566;28;20049;-70
2021/09/04 09:08:23;;;;;;;8.52;7.78;;;;;;;25.76;41.94;95501.75;5008867;28;20037;-69
2021/09/04 09:10:51;;;;;;;8.20;7.50;;;;;;;25.90;42.80;95483.41;5010699;28;20030;-70
2021/09/04 09:13:20;;;;;;;8.55;7.75;;;;;;;25.90;41.77;95499.75;5012751;28;20028;-70
2021/09/04 09:15:48;;;;;;;8.55;7.70;;;;;;;25.79;40.82;95498.97;5010398;28;20041;-70
2021/09/04 09:18:16;;;;;;;7.70;6.90;;;;;;;25.90;39.22;95498.97;4993295;28;20514;-69
2021/09/04 09:20:46;;;;;;;7.10;6.45;;;;;;;25.89;38.01;95498.19;4993114;28;20042;-70
2021/09/04 09:23:17;;;;;;;7.82;7.05;;;;;;;25.75;39.05;95486.56;5010673;28;20034;-70
2021/09/04 09:25:45;;;;;;;7.18;6.57;;;;;;;26.15;39.30;95486.00;5010403;28;20026;-70
2021/09/04 09:28:12;;;;;;;7.80;7.05;;;;;;;26.30;38.17;95484.00;5012498;28;20029;-71
2021/09/04 09:30:49;;;;;;;7.25;6.55;;;;;;;25.59;38.32;95487.75;4992138;28;20044;-71
2021/09/04 09:33:17;;;;;;;7.40;6.80;;;;;;;25.21;38.71;95475.72;5010288;28;20519;-70
2021/09/04 09:35:57;;;;;;;7.40;6.70;;;;;;;26.01;37.59;95498.94;4992512;28;20574;-70
2021/09/04 09:38:25;;;;;;;6.43;5.80;;;;;;;25.04;37.69;95482.69;5009901;28;20107;-71
2021/09/04 09:40:52;;;;;;;8.13;6.63;;;;;;;25.52;37.11;95489.69;5009802;28;20025;-70
2021/09/04 09:43:23;;;;;;;7.00;6.40;;;;;;;25.75;36.57;95492.78;5012190;28;20452;-70
2021/09/04 09:45:49;;;;;;;6.70;6.10;;;;;;;25.60;36.75;95496.69;4992114;28;20061;-70
2021/09/04 09:48:21;;;;;;;6.13;5.55;;;;;;;25.57;35.47;95490.06;4992351;28;20046;-70
2021/09/04 09:50:46;;;;;;;;;;;;;;;25.81;35.66;95485.00;4992477;28;20049;-71
2021/09/04 09:53:12;;;;;;;7.30;5.95;;;;;;;26.09;35.21;95462.28;5010116;28;19917;-71
2021/09/04 09:55:43;;;;;;;5.70;5.20;;;;;;;26.11;35.14;95471.63;5010059;28;20448;-71
2021/09/04 09:58:10;;;;;;;6.20;5.70;;;;;;;26.34;35.28;95479.31;5011891;28;20032;-70
2021/09/04 10:00:35;;;;;;;5.82;5.32;;;;;;;26.31;34.73;95482.84;5008871;28;20042;-71
2021/09/04 10:03:04;;;;;;;6.25;5.65;;;;;;;26.37;34.86;95451.25;4992152;28;20042;-71
2021/09/04 10:05:30;;;;;;;6.20;5.70;;;;;;;26.61;34.69;95463.19;5009705;28;20034;-71
2021/09/04 10:07:57;;;;;;;6.25;5.40;;;;;;;26.55;35.10;95474.94;5009789;28;20038;-70
2021/09/04 10:10:30;;;;;;;6.03;5.55;;;;;;;26.60;34.68;95483.47;5011584;28;20113;-71
2021/09/04 10:12:57;;;;;;;5.75;5.30;;;;;;;26.52;35.14;95478.47;5009706;28;20061;-71
2021/09/04 10:15:31;;;;;;;5.40;4.90;;;;;;;26.33;34.37;95466.84;5009018;28;20052;-70
2021/09/04 10:17:58;;;;;;;5.40;5.00;;;;;;;26.64;34.66;95470.59;5009556;28;20054;-71
2021/09/04 10:20:25;;;;;;;6.18;4.93;;;;;;;26.60;32.97;95469.84;5008778;28;20074;-70
2021/09/04 10:22:54;;;;;;;5.03;4.50;;;;;;;26.84;32.67;95462.66;5009601;28;20587;-71
2021/09/04 10:25:20;;;;;;;5.20;4.80;;;;;;;27.10;33.25;95469.50;5011530;28;20475;-71
2021/09/04 10:27:49;;;;;;;5.65;5.15;;;;;;;27.20;33.08;95460.44;5009470;28;20104;-71
2021/09/04 10:30:27;;;;;;;5.93;5.45;;;;;;;26.87;34.08;95458.34;5008469;28;20046;-71
2021/09/04 10:33:12;;;;;;;5.45;5.05;;;;;;;27.24;34.45;95457.69;4991862;28;20123;-71
2021/09/04 10:35:54;;;;;;;5.80;5.32;;;;;;;27.00;34.97;95455.91;4991925;28;20045;-71
2021/09/04 10:38:19;;;;;;;5.95;5.50;;;;;;;27.01;33.68;95452.00;5009370;28;20055;-70
2021/09/04 10:41:06;;;;;;;5.93;5.32;;;;;;;27.14;33.66;95458.56;4991315;28;20021;-71
2021/09/04 10:43:32;;;;;;;5.90;5.45;;;;;;;27.35;33.95;95452.13;5011099;28;20730;-71
2021/09/04 10:45:58;;;;;;;5.65;5.15;;;;;;;27.09;34.59;95456.28;5009231;28;20037;-72
2021/09/04 10:48:23;;;;;;;4.80;4.40;;;;;;;27.59;34.21;95442.91;5008852;28;20403;-71
2021/09/04 10:51:09;;;;;;;5.97;5.57;;;;;;;27.29;33.55;95449.06;5008298;28;20041;-71
2021/09/04 10:53:45;;;;;;;6.13;5.63;;;;;;;26.44;35.23;95459.41;5009250;28;20046;-70
2021/09/04 10:56:22;;;;;;;5.70;5.30;;;;;;;27.00;34.78;95458.66;5009024;28;20053;-70
2021/09/04 10:58:50;;;;;;;6.18;5.63;;;;;;;27.33;34.19;95455.28;5009050;28;20064;-71
2021/09/04 11:01:26;;;;;;;5.72;5.22;;;;;;;27.55;34.14;95452.34;4993137;28;20022;-77
2021/09/04 11:03:53;;;;;;;5.82;5.32;;;;;;;27.32;34.36;95440.06;5006312;28;20042;-74
2021/09/04 11:06:20;;;;;;;6.55;5.50;;;;;;;27.34;33.86;95450.59;5009093;28;20034;-71
2021/09/04 11:08:47;;;;;;;5.80;5.30;;;;;;;27.29;33.99;95443.59;5008633;28;20053;-71
2021/09/04 11:11:24;;;;;;;5.32;4.93;;;;;;;27.74;33.84;95454.47;5008978;28;20049;-73
2021/09/04 11:13:52;;;;;;;5.95;5.35;;;;;;;27.57;33.68;95453.47;4990053;28;20026;-71
2021/09/04 11:16:39;;;;;;;5.78;5.00;;;;;;;28.11;32.40;95459.16;4992441;28;20026;-70
2021/09/04 11:19:13;;;;;;;5.50;5.10;;;;;;;27.17;34.31;95447.59;5008836;28;20092;-70
2021/09/04 11:21:49;;;;;;;5.50;5.00;;;;;;;27.08;35.14;95449.25;4990993;28;20125;-70